Cedar Bluff, Iowa
Current Conditions -  °F | °C
As of 10:52 AM on Thursday 30 Oct 2014 (Local Time) from KIOW Reporting Station
Overcast Overcast  
Wind Chill: 41°   Ceiling: 7000
Heat Index: 46°   Visibility: 10mi
Dew Point: 39°   Wind: 9mph
Humidity: 76%   Direction: 140°SE
Pressure: 30.09"   Gusts: NA
Location:  41.7563°N, 91.1443°W
Report Text: KIOW 301552Z AUTO 14008KT 10SM OVC070 08/04 A3009 RMK AO2 RAB35E44 SLP195 P0000 T00780039
Loading
Personal Weather Stations






























Interactive Weather Map
Tropical Storm Tracking
New forecast layout! Learn more

10-Day Weather Forecast

Advertisements
Track Severe Weather on mobile